sensor_id;sensor_type;location;lat;lon;timestamp;P1;durP1;ratioP1;P2;durP2;ratioP2
4424;SDS011;2225;53.568;13.266;2022-10-17T00:00:56;8.20;;;2.73;;
4424;SDS011;2225;53.568;13.266;2022-10-17T00:03:23;11.37;;;2.70;;
4424;SDS011;2225;53.568;13.266;2022-10-17T00:05:50;6.60;;;2.10;;
4424;SDS011;2225;53.568;13.266;2022-10-17T00:08:17;11.20;;;2.60;;
4424;SDS011;2225;53.568;13.266;2022-10-17T00:10:45;11.40;;;2.97;;
4424;SDS011;2225;53.568;13.266;2022-10-17T00:13:23;6.67;;;3.10;;
4424;SDS011;2225;53.568;13.266;2022-10-17T00:15:50;11.43;;;3.30;;
4424;SDS011;2225;53.568;13.266;2022-10-17T00:18:17;6.37;;;2.37;;
4424;SDS011;2225;53.568;13.266;2022-10-17T00:20:44;5.90;;;2.30;;
4424;SDS011;2225;53.568;13.266;2022-10-17T00:23:11;5.93;;;2.30;;
4424;SDS011;2225;53.568;13.266;2022-10-17T00:25:38;8.30;;;2.60;;
4424;SDS011;2225;53.568;13.266;2022-10-17T00:28:08;13.83;;;2.83;;
4424;SDS011;2225;53.568;13.266;2022-10-17T00:30:36;15.47;;;3.07;;
4424;SDS011;2225;53.568;13.266;2022-10-17T00:33:03;6.73;;;2.80;;
4424;SDS011;2225;53.568;13.266;2022-10-17T00:35:31;9.73;;;3.40;;
4424;SDS011;2225;53.568;13.266;2022-10-17T00:37:58;9.00;;;3.17;;
4424;SDS011;2225;53.568;13.266;2022-10-17T00:40:25;10.03;;;3.17;;
4424;SDS011;2225;53.568;13.266;2022-10-17T00:42:52;9.20;;;3.10;;
4424;SDS011;2225;53.568;13.266;2022-10-17T00:45:21;18.30;;;4.20;;
4424;SDS011;2225;53.568;13.266;2022-10-17T00:47:57;9.00;;;3.37;;
4424;SDS011;2225;53.568;13.266;2022-10-17T00:50:35;8.90;;;3.30;;
4424;SDS011;2225;53.568;13.266;2022-10-17T00:53:04;10.53;;;3.07;;
4424;SDS011;2225;53.568;13.266;2022-10-17T00:55:34;7.83;;;3.30;;
4424;SDS011;2225;53.568;13.266;2022-10-17T00:58:09;6.50;;;2.97;;
4424;SDS011;2225;53.568;13.266;2022-10-17T01:00:36;7.73;;;2.67;;
4424;SDS011;2225;53.568;13.266;2022-10-17T01:03:03;7.13;;;2.60;;
4424;SDS011;2225;53.568;13.266;2022-10-17T01:05:30;21.73;;;2.90;;
4424;SDS011;2225;53.568;13.266;2022-10-17T01:07:57;10.93;;;3.40;;
4424;SDS011;2225;53.568;13.266;2022-10-17T01:10:37;9.27;;;2.53;;
4424;SDS011;2225;53.568;13.266;2022-10-17T01:13:32;6.20;;;2.93;;
4424;SDS011;2225;53.568;13.266;2022-10-17T01:16:31;8.00;;;2.97;;
4424;SDS011;2225;53.568;13.266;2022-10-17T01:22:16;8.80;;;2.67;;
4424;SDS011;2225;53.568;13.266;2022-10-17T01:24:56;8.03;;;2.50;;
4424;SDS011;2225;53.568;13.266;2022-10-17T01:27:50;12.90;;;2.87;;
4424;SDS011;2225;53.568;13.266;2022-10-17T01:30:44;9.63;;;2.63;;
4424;SDS011;2225;53.568;13.266;2022-10-17T01:33:52;6.60;;;2.43;;
4424;SDS011;2225;53.568;13.266;2022-10-17T01:36:34;7.80;;;2.80;;
4424;SDS011;2225;53.568;13.266;2022-10-17T01:39:14;6.47;;;2.50;;
4424;SDS011;2225;53.568;13.266;2022-10-17T01:42:18;6.17;;;2.43;;
4424;SDS011;2225;53.568;13.266;2022-10-17T01:45:02;10.80;;;2.10;;
4424;SDS011;2225;53.568;13.266;2022-10-17T01:47:37;7.10;;;2.03;;
4424;SDS011;2225;53.568;13.266;2022-10-17T01:50:11;13.73;;;4.23;;
4424;SDS011;2225;53.568;13.266;2022-10-17T01:52:47;5.93;;;2.33;;
4424;SDS011;2225;53.568;13.266;2022-10-17T01:55:20;9.60;;;2.70;;
4424;SDS011;2225;53.568;13.266;2022-10-17T01:58:00;5.50;;;2.23;;
4424;SDS011;2225;53.568;13.266;2022-10-17T02:00:33;6.27;;;2.80;;
4424;SDS011;2225;53.568;13.266;2022-10-17T02:03:03;13.70;;;3.10;;
4424;SDS011;2225;53.568;13.266;2022-10-17T02:05:36;4.60;;;2.07;;
4424;SDS011;2225;53.568;13.266;2022-10-17T02:08:06;15.10;;;3.23;;
4424;SDS011;2225;53.568;13.266;2022-10-17T02:10:35;5.23;;;2.33;;
4424;SDS011;2225;53.568;13.266;2022-10-17T02:22:42;4.83;;;2.17;;
4424;SDS011;2225;53.568;13.266;2022-10-17T02:25:35;5.80;;;2.13;;
4424;SDS011;2225;53.568;13.266;2022-10-17T02:31:15;13.77;;;2.80;;
4424;SDS011;2225;53.568;13.266;2022-10-17T02:33:48;6.00;;;2.67;;
4424;SDS011;2225;53.568;13.266;2022-10-17T02:36:24;6.60;;;2.10;;
4424;SDS011;2225;53.568;13.266;2022-10-17T02:38:57;8.23;;;2.60;;
4424;SDS011;2225;53.568;13.266;2022-10-17T02:41:28;10.37;;;2.47;;
4424;SDS011;2225;53.568;13.266;2022-10-17T02:43:56;8.93;;;2.73;;
4424;SDS011;2225;53.568;13.266;2022-10-17T02:46:27;7.93;;;2.80;;
4424;SDS011;2225;53.568;13.266;2022-10-17T02:49:04;12.83;;;2.50;;
4424;SDS011;2225;53.568;13.266;2022-10-17T02:51:42;8.40;;;2.00;;
4424;SDS011;2225;53.568;13.266;2022-10-17T02:54:32;5.30;;;2.10;;
4424;SDS011;2225;53.568;13.266;2022-10-17T02:57:17;7.90;;;2.10;;
4424;SDS011;2225;53.568;13.266;2022-10-17T02:59:53;6.10;;;2.70;;
4424;SDS011;2225;53.568;13.266;2022-10-17T03:02:23;7.50;;;2.37;;
4424;SDS011;2225;53.568;13.266;2022-10-17T03:04:50;7.13;;;2.17;;
4424;SDS011;2225;53.568;13.266;2022-10-17T03:07:17;6.10;;;2.00;;
4424;SDS011;2225;53.568;13.266;2022-10-17T03:09:44;5.40;;;2.63;;
4424;SDS011;2225;53.568;13.266;2022-10-17T03:12:11;9.47;;;2.23;;
4424;SDS011;2225;53.568;13.266;2022-10-17T03:14:38;7.17;;;2.40;;
4424;SDS011;2225;53.568;13.266;2022-10-17T03:17:05;6.73;;;2.37;;
4424;SDS011;2225;53.568;13.266;2022-10-17T03:19:32;6.60;;;2.60;;
4424;SDS011;2225;53.568;13.266;2022-10-17T03:21:59;5.60;;;2.00;;
4424;SDS011;2225;53.568;13.266;2022-10-17T03:24:25;10.73;;;2.73;;
4424;SDS011;2225;53.568;13.266;2022-10-17T03:26:52;10.03;;;2.50;;
4424;SDS011;2225;53.568;13.266;2022-10-17T03:29:20;6.37;;;2.33;;
4424;SDS011;2225;53.568;13.266;2022-10-17T03:31:47;8.67;;;2.30;;
4424;SDS011;2225;53.568;13.266;2022-10-17T03:34:15;8.80;;;2.40;;
4424;SDS011;2225;53.568;13.266;2022-10-17T03:36:44;9.40;;;2.70;;
4424;SDS011;2225;53.568;13.266;2022-10-17T03:39:11;8.80;;;2.60;;
4424;SDS011;2225;53.568;13.266;2022-10-17T03:41:38;12.53;;;2.97;;
4424;SDS011;2225;53.568;13.266;2022-10-17T03:44:05;9.57;;;2.43;;
4424;SDS011;2225;53.568;13.266;2022-10-17T03:46:32;10.80;;;2.77;;
4424;SDS011;2225;53.568;13.266;2022-10-17T03:48:59;8.40;;;2.50;;
4424;SDS011;2225;53.568;13.266;2022-10-17T03:51:26;6.80;;;2.37;;
4424;SDS011;2225;53.568;13.266;2022-10-17T03:54:00;7.83;;;2.10;;
4424;SDS011;2225;53.568;13.266;2022-10-17T03:56:27;7.03;;;2.20;;
4424;SDS011;2225;53.568;13.266;2022-10-17T03:58:59;6.00;;;2.30;;
4424;SDS011;2225;53.568;13.266;2022-10-17T04:01:28;7.33;;;2.60;;
4424;SDS011;2225;53.568;13.266;2022-10-17T04:03:55;6.50;;;2.40;;
4424;SDS011;2225;53.568;13.266;2022-10-17T04:06:27;16.30;;;2.33;;
4424;SDS011;2225;53.568;13.266;2022-10-17T04:08:54;6.87;;;2.40;;
4424;SDS011;2225;53.568;13.266;2022-10-17T04:11:30;10.43;;;3.07;;
4424;SDS011;2225;53.568;13.266;2022-10-17T04:13:58;4.80;;;2.10;;
4424;SDS011;2225;53.568;13.266;2022-10-17T04:16:27;11.33;;;2.70;;
4424;SDS011;2225;53.568;13.266;2022-10-17T04:19:01;7.30;;;3.10;;
4424;SDS011;2225;53.568;13.266;2022-10-17T04:21:34;7.40;;;2.70;;
4424;SDS011;2225;53.568;13.266;2022-10-17T04:24:04;6.10;;;2.20;;
4424;SDS011;2225;53.568;13.266;2022-10-17T04:26:44;8.20;;;2.60;;
4424;SDS011;2225;53.568;13.266;2022-10-17T04:29:12;7.27;;;2.30;;
4424;SDS011;2225;53.568;13.266;2022-10-17T04:31:42;5.50;;;2.70;;
4424;SDS011;2225;53.568;13.266;2022-10-17T04:34:19;7.27;;;2.60;;
4424;SDS011;2225;53.568;13.266;2022-10-17T04:36:46;6.37;;;3.00;;
4424;SDS011;2225;53.568;13.266;2022-10-17T04:39:14;9.80;;;3.80;;
4424;SDS011;2225;53.568;13.266;2022-10-17T04:41:41;8.80;;;3.83;;
4424;SDS011;2225;53.568;13.266;2022-10-17T04:44:09;7.13;;;3.30;;
4424;SDS011;2225;53.568;13.266;2022-10-17T04:46:39;9.27;;;3.67;;
4424;SDS011;2225;53.568;13.266;2022-10-17T04:49:07;11.13;;;3.10;;
4424;SDS011;2225;53.568;13.266;2022-10-17T04:51:35;7.20;;;2.83;;
4424;SDS011;2225;53.568;13.266;2022-10-17T04:54:11;9.67;;;2.77;;
4424;SDS011;2225;53.568;13.266;2022-10-17T04:56:41;9.60;;;3.53;;
4424;SDS011;2225;53.568;13.266;2022-10-17T04:59:08;9.33;;;3.00;;
4424;SDS011;2225;53.568;13.266;2022-10-17T05:01:37;7.37;;;2.93;;
4424;SDS011;2225;53.568;13.266;2022-10-17T05:04:05;4.97;;;2.20;;
4424;SDS011;2225;53.568;13.266;2022-10-17T05:06:32;7.57;;;2.50;;
4424;SDS011;2225;53.568;13.266;2022-10-17T05:09:26;9.67;;;2.73;;
4424;SDS011;2225;53.568;13.266;2022-10-17T05:11:54;7.07;;;2.77;;
4424;SDS011;2225;53.568;13.266;2022-10-17T05:14:21;6.87;;;3.07;;
4424;SDS011;2225;53.568;13.266;2022-10-17T05:16:48;10.30;;;2.90;;
4424;SDS011;2225;53.568;13.266;2022-10-17T05:19:15;8.07;;;3.00;;
4424;SDS011;2225;53.568;13.266;2022-10-17T05:21:46;6.30;;;2.40;;
4424;SDS011;2225;53.568;13.266;2022-10-17T05:24:13;6.57;;;2.30;;
4424;SDS011;2225;53.568;13.266;2022-10-17T05:26:40;6.93;;;2.50;;
4424;SDS011;2225;53.568;13.266;2022-10-17T05:29:07;6.40;;;3.03;;
4424;SDS011;2225;53.568;13.266;2022-10-17T05:31:40;11.23;;;3.03;;
4424;SDS011;2225;53.568;13.266;2022-10-17T05:34:07;12.33;;;2.90;;
4424;SDS011;2225;53.568;13.266;2022-10-17T05:36:40;11.60;;;2.97;;
4424;SDS011;2225;53.568;13.266;2022-10-17T05:39:07;5.50;;;2.50;;
4424;SDS011;2225;53.568;13.266;2022-10-17T05:41:35;7.07;;;2.00;;
4424;SDS011;2225;53.568;13.266;2022-10-17T05:44:03;10.60;;;3.40;;
4424;SDS011;2225;53.568;13.266;2022-10-17T05:46:39;10.73;;;3.20;;
4424;SDS011;2225;53.568;13.266;2022-10-17T05:49:05;22.90;;;3.27;;
4424;SDS011;2225;53.568;13.266;2022-10-17T05:51:57;14.43;;;2.77;;
4424;SDS011;2225;53.568;13.266;2022-10-17T05:54:24;6.80;;;3.20;;
4424;SDS011;2225;53.568;13.266;2022-10-17T05:56:55;11.93;;;2.60;;
4424;SDS011;2225;53.568;13.266;2022-10-17T05:59:26;6.43;;;2.57;;
4424;SDS011;2225;53.568;13.266;2022-10-17T06:02:02;9.57;;;2.80;;
4424;SDS011;2225;53.568;13.266;2022-10-17T06:04:29;12.77;;;3.23;;
4424;SDS011;2225;53.568;13.266;2022-10-17T06:06:59;8.20;;;3.10;;
4424;SDS011;2225;53.568;13.266;2022-10-17T06:09:26;19.77;;;2.97;;
4424;SDS011;2225;53.568;13.266;2022-10-17T06:11:54;12.17;;;2.53;;
4424;SDS011;2225;53.568;13.266;2022-10-17T06:14:22;8.50;;;3.10;;
4424;SDS011;2225;53.568;13.266;2022-10-17T06:16:53;8.70;;;3.03;;
4424;SDS011;2225;53.568;13.266;2022-10-17T06:19:20;8.13;;;2.30;;
4424;SDS011;2225;53.568;13.266;2022-10-17T06:21:47;11.00;;;3.00;;
4424;SDS011;2225;53.568;13.266;2022-10-17T06:24:18;5.90;;;2.33;;
4424;SDS011;2225;53.568;13.266;2022-10-17T06:26:45;7.80;;;2.50;;
4424;SDS011;2225;53.568;13.266;2022-10-17T06:29:15;6.50;;;3.00;;
4424;SDS011;2225;53.568;13.266;2022-10-17T06:31:46;16.70;;;2.70;;
4424;SDS011;2225;53.568;13.266;2022-10-17T06:34:13;7.47;;;2.40;;
4424;SDS011;2225;53.568;13.266;2022-10-17T06:36:40;9.60;;;2.97;;
4424;SDS011;2225;53.568;13.266;2022-10-17T06:39:08;5.50;;;2.40;;
4424;SDS011;2225;53.568;13.266;2022-10-17T06:41:40;9.00;;;2.73;;
4424;SDS011;2225;53.568;13.266;2022-10-17T06:44:10;9.43;;;3.03;;
4424;SDS011;2225;53.568;13.266;2022-10-17T06:46:47;10.70;;;3.03;;
4424;SDS011;2225;53.568;13.266;2022-10-17T06:49:16;11.20;;;3.57;;
4424;SDS011;2225;53.568;13.266;2022-10-17T06:51:50;11.43;;;3.30;;
4424;SDS011;2225;53.568;13.266;2022-10-17T06:54:21;12.43;;;3.37;;
4424;SDS011;2225;53.568;13.266;2022-10-17T06:57:24;8.30;;;3.30;;
4424;SDS011;2225;53.568;13.266;2022-10-17T07:00:01;25.30;;;4.07;;
4424;SDS011;2225;53.568;13.266;2022-10-17T07:02:38;6.17;;;3.00;;
4424;SDS011;2225;53.568;13.266;2022-10-17T07:05:05;11.93;;;3.57;;
4424;SDS011;2225;53.568;13.266;2022-10-17T07:07:33;10.40;;;3.00;;
4424;SDS011;2225;53.568;13.266;2022-10-17T07:10:03;9.20;;;3.40;;
4424;SDS011;2225;53.568;13.266;2022-10-17T07:12:35;7.07;;;3.37;;
4424;SDS011;2225;53.568;13.266;2022-10-17T07:15:03;10.70;;;3.47;;
4424;SDS011;2225;53.568;13.266;2022-10-17T07:17:30;6.97;;;3.00;;
4424;SDS011;2225;53.568;13.266;2022-10-17T07:19:58;10.27;;;3.83;;
4424;SDS011;2225;53.568;13.266;2022-10-17T07:22:25;14.00;;;3.30;;
4424;SDS011;2225;53.568;13.266;2022-10-17T07:24:55;9.50;;;4.03;;
4424;SDS011;2225;53.568;13.266;2022-10-17T07:27:27;10.13;;;3.97;;
4424;SDS011;2225;53.568;13.266;2022-10-17T07:29:54;7.80;;;3.43;;
4424;SDS011;2225;53.568;13.266;2022-10-17T07:32:31;6.50;;;3.30;;
4424;SDS011;2225;53.568;13.266;2022-10-17T07:34:58;11.70;;;3.60;;
4424;SDS011;2225;53.568;13.266;2022-10-17T07:37:25;12.63;;;3.27;;
4424;SDS011;2225;53.568;13.266;2022-10-17T07:39:54;9.20;;;3.63;;
4424;SDS011;2225;53.568;13.266;2022-10-17T07:42:21;8.83;;;3.37;;
4424;SDS011;2225;53.568;13.266;2022-10-17T07:44:49;10.17;;;2.83;;
4424;SDS011;2225;53.568;13.266;2022-10-17T07:47:16;7.50;;;3.80;;
4424;SDS011;2225;53.568;13.266;2022-10-17T07:49:45;5.50;;;3.07;;
4424;SDS011;2225;53.568;13.266;2022-10-17T07:52:13;11.43;;;3.57;;
4424;SDS011;2225;53.568;13.266;2022-10-17T07:54:41;7.20;;;3.20;;
4424;SDS011;2225;53.568;13.266;2022-10-17T07:57:08;8.83;;;3.70;;
4424;SDS011;2225;53.568;13.266;2022-10-17T07:59:36;9.70;;;5.03;;
4424;SDS011;2225;53.568;13.266;2022-10-17T08:02:03;9.13;;;4.30;;
4424;SDS011;2225;53.568;13.266;2022-10-17T08:04:33;11.53;;;5.10;;
4424;SDS011;2225;53.568;13.266;2022-10-17T08:07:01;12.33;;;5.50;;
4424;SDS011;2225;53.568;13.266;2022-10-17T08:09:47;10.53;;;4.50;;
4424;SDS011;2225;53.568;13.266;2022-10-17T08:12:14;6.97;;;3.90;;
4424;SDS011;2225;53.568;13.266;2022-10-17T08:14:41;6.90;;;3.70;;
4424;SDS011;2225;53.568;13.266;2022-10-17T08:17:08;8.43;;;4.50;;
4424;SDS011;2225;53.568;13.266;2022-10-17T08:19:38;13.50;;;3.83;;
4424;SDS011;2225;53.568;13.266;2022-10-17T08:22:06;10.47;;;3.97;;
4424;SDS011;2225;53.568;13.266;2022-10-17T08:24:33;7.87;;;4.10;;
4424;SDS011;2225;53.568;13.266;2022-10-17T08:27:00;10.47;;;3.70;;
4424;SDS011;2225;53.568;13.266;2022-10-17T08:29:29;7.27;;;3.80;;
4424;SDS011;2225;53.568;13.266;2022-10-17T08:31:57;7.70;;;3.73;;
4424;SDS011;2225;53.568;13.266;2022-10-17T08:34:27;6.00;;;2.90;;
4424;SDS011;2225;53.568;13.266;2022-10-17T08:36:53;7.77;;;3.67;;
4424;SDS011;2225;53.568;13.266;2022-10-17T08:39:20;8.30;;;3.57;;
4424;SDS011;2225;53.568;13.266;2022-10-17T08:41:58;10.50;;;3.90;;
4424;SDS011;2225;53.568;13.266;2022-10-17T08:47:28;8.60;;;3.40;;
4424;SDS011;2225;53.568;13.266;2022-10-17T08:50:03;11.10;;;3.80;;
4424;SDS011;2225;53.568;13.266;2022-10-17T08:52:37;7.77;;;3.73;;
4424;SDS011;2225;53.568;13.266;2022-10-17T08:55:27;7.03;;;3.60;;
4424;SDS011;2225;53.568;13.266;2022-10-17T08:57:59;9.17;;;4.03;;
4424;SDS011;2225;53.568;13.266;2022-10-17T09:00:27;9.23;;;3.50;;
4424;SDS011;2225;53.568;13.266;2022-10-17T09:09:01;6.40;;;3.80;;
4424;SDS011;2225;53.568;13.266;2022-10-17T09:14:46;7.77;;;2.63;;
4424;SDS011;2225;53.568;13.266;2022-10-17T09:17:54;7.17;;;3.80;;
4424;SDS011;2225;53.568;13.266;2022-10-17T09:20:38;7.63;;;3.30;;
4424;SDS011;2225;53.568;13.266;2022-10-17T09:23:12;6.63;;;3.20;;
4424;SDS011;2225;53.568;13.266;2022-10-17T09:25:52;6.70;;;2.93;;
4424;SDS011;2225;53.568;13.266;2022-10-17T09:28:25;5.87;;;3.10;;
4424;SDS011;2225;53.568;13.266;2022-10-17T09:31:01;9.83;;;3.17;;
4424;SDS011;2225;53.568;13.266;2022-10-17T09:33:44;20.20;;;3.50;;
4424;SDS011;2225;53.568;13.266;2022-10-17T09:36:21;6.00;;;3.13;;
4424;SDS011;2225;53.568;13.266;2022-10-17T09:39:00;11.00;;;2.80;;
4424;SDS011;2225;53.568;13.266;2022-10-17T09:41:38;6.23;;;2.60;;
4424;SDS011;2225;53.568;13.266;2022-10-17T09:47:16;6.67;;;3.10;;
4424;SDS011;2225;53.568;13.266;2022-10-17T09:50:00;8.37;;;3.10;;
4424;SDS011;2225;53.568;13.266;2022-10-17T09:52:29;8.30;;;3.37;;
4424;SDS011;2225;53.568;13.266;2022-10-17T10:00:26;6.73;;;3.80;;
4424;SDS011;2225;53.568;13.266;2022-10-17T10:03:09;10.37;;;3.30;;
4424;SDS011;2225;53.568;13.266;2022-10-17T10:05:40;6.50;;;3.07;;
4424;SDS011;2225;53.568;13.266;2022-10-17T10:08:12;6.00;;;3.30;;
4424;SDS011;2225;53.568;13.266;2022-10-17T10:10:44;6.30;;;3.30;;
4424;SDS011;2225;53.568;13.266;2022-10-17T10:15:43;8.27;;;3.47;;
4424;SDS011;2225;53.568;13.266;2022-10-17T10:23:41;5.43;;;2.73;;
4424;SDS011;2225;53.568;13.266;2022-10-17T10:32:15;11.50;;;3.30;;
4424;SDS011;2225;53.568;13.266;2022-10-17T10:34:51;11.77;;;3.50;;
4424;SDS011;2225;53.568;13.266;2022-10-17T10:37:27;7.90;;;2.60;;
4424;SDS011;2225;53.568;13.266;2022-10-17T10:40:16;7.83;;;2.90;;
4424;SDS011;2225;53.568;13.266;2022-10-17T10:45:50;18.60;;;2.97;;
4424;SDS011;2225;53.568;13.266;2022-10-17T10:48:22;6.80;;;2.97;;
4424;SDS011;2225;53.568;13.266;2022-10-17T10:53:32;9.80;;;3.40;;
4424;SDS011;2225;53.568;13.266;2022-10-17T10:56:23;11.37;;;3.30;;
4424;SDS011;2225;53.568;13.266;2022-10-17T10:59:02;5.90;;;2.70;;
4424;SDS011;2225;53.568;13.266;2022-10-17T11:04:26;5.60;;;2.90;;
4424;SDS011;2225;53.568;13.266;2022-10-17T11:07:13;7.13;;;3.10;;
4424;SDS011;2225;53.568;13.266;2022-10-17T11:10:09;7.97;;;3.03;;
4424;SDS011;2225;53.568;13.266;2022-10-17T11:13:22;7.90;;;3.30;;
4424;SDS011;2225;53.568;13.266;2022-10-17T11:15:56;8.53;;;3.37;;
4424;SDS011;2225;53.568;13.266;2022-10-17T11:21:57;6.87;;;3.40;;
4424;SDS011;2225;53.568;13.266;2022-10-17T11:24:45;13.97;;;3.40;;
4424;SDS011;2225;53.568;13.266;2022-10-17T11:27:25;7.43;;;2.90;;
4424;SDS011;2225;53.568;13.266;2022-10-17T11:29:54;10.30;;;3.03;;
4424;SDS011;2225;53.568;13.266;2022-10-17T11:32:27;5.37;;;2.80;;
4424;SDS011;2225;53.568;13.266;2022-10-17T11:35:05;5.77;;;2.90;;
4424;SDS011;2225;53.568;13.266;2022-10-17T11:37:45;7.23;;;3.23;;
4424;SDS011;2225;53.568;13.266;2022-10-17T11:40:29;9.13;;;3.50;;
4424;SDS011;2225;53.568;13.266;2022-10-17T11:43:01;7.17;;;3.20;;
4424;SDS011;2225;53.568;13.266;2022-10-17T11:45:44;7.73;;;3.43;;
4424;SDS011;2225;53.568;13.266;2022-10-17T11:48:26;11.73;;;3.50;;
4424;SDS011;2225;53.568;13.266;2022-10-17T11:54:09;6.00;;;3.20;;
4424;SDS011;2225;53.568;13.266;2022-10-17T11:57:06;6.70;;;3.07;;
4424;SDS011;2225;53.568;13.266;2022-10-17T12:02:22;6.13;;;3.20;;
4424;SDS011;2225;53.568;13.266;2022-10-17T12:05:00;9.27;;;3.50;;
4424;SDS011;2225;53.568;13.266;2022-10-17T12:08:05;13.53;;;3.60;;
4424;SDS011;2225;53.568;13.266;2022-10-17T12:15:53;7.20;;;3.00;;
4424;SDS011;2225;53.568;13.266;2022-10-17T12:18:25;8.33;;;3.10;;
4424;SDS011;2225;53.568;13.266;2022-10-17T12:20:56;7.23;;;3.40;;
4424;SDS011;2225;53.568;13.266;2022-10-17T12:23:25;6.97;;;3.13;;
4424;SDS011;2225;53.568;13.266;2022-10-17T12:26:00;7.40;;;3.60;;
4424;SDS011;2225;53.568;13.266;2022-10-17T12:33:58;15.17;;;3.07;;
4424;SDS011;2225;53.568;13.266;2022-10-17T12:41:51;9.47;;;3.83;;
4424;SDS011;2225;53.568;13.266;2022-10-17T12:46:48;7.03;;;3.60;;
4424;SDS011;2225;53.568;13.266;2022-10-17T12:52:20;7.90;;;3.20;;
4424;SDS011;2225;53.568;13.266;2022-10-17T13:03:16;6.90;;;3.53;;
4424;SDS011;2225;53.568;13.266;2022-10-17T13:06:01;6.13;;;2.83;;
4424;SDS011;2225;53.568;13.266;2022-10-17T13:08:33;8.73;;;3.00;;
4424;SDS011;2225;53.568;13.266;2022-10-17T13:11:04;14.90;;;3.27;;
4424;SDS011;2225;53.568;13.266;2022-10-17T13:13:43;7.30;;;3.67;;
4424;SDS011;2225;53.568;13.266;2022-10-17T13:16:30;5.93;;;3.37;;
4424;SDS011;2225;53.568;13.266;2022-10-17T13:19:25;9.70;;;3.57;;
4424;SDS011;2225;53.568;13.266;2022-10-17T13:22:17;8.53;;;3.00;;
4424;SDS011;2225;53.568;13.266;2022-10-17T13:25:05;6.07;;;3.13;;
4424;SDS011;2225;53.568;13.266;2022-10-17T13:27:37;8.70;;;3.07;;
4424;SDS011;2225;53.568;13.266;2022-10-17T13:30:20;18.43;;;10.30;;
4424;SDS011;2225;53.568;13.266;2022-10-17T13:32:47;8.77;;;5.77;;
4424;SDS011;2225;53.568;13.266;2022-10-17T13:35:15;4.80;;;2.70;;
4424;SDS011;2225;53.568;13.266;2022-10-17T13:38:10;7.40;;;3.70;;
4424;SDS011;2225;53.568;13.266;2022-10-17T13:40:39;6.57;;;3.40;;
4424;SDS011;2225;53.568;13.266;2022-10-17T13:43:20;13.67;;;3.37;;
4424;SDS011;2225;53.568;13.266;2022-10-17T13:45:52;10.80;;;4.00;;
4424;SDS011;2225;53.568;13.266;2022-10-17T13:48:35;9.90;;;4.00;;
4424;SDS011;2225;53.568;13.266;2022-10-17T13:51:03;7.37;;;3.23;;
4424;SDS011;2225;53.568;13.266;2022-10-17T13:53:37;8.37;;;3.40;;
4424;SDS011;2225;53.568;13.266;2022-10-17T13:56:21;5.70;;;3.10;;
4424;SDS011;2225;53.568;13.266;2022-10-17T13:58:55;7.40;;;3.23;;
4424;SDS011;2225;53.568;13.266;2022-10-17T14:01:31;10.73;;;3.63;;
4424;SDS011;2225;53.568;13.266;2022-10-17T14:03:58;8.73;;;3.67;;
4424;SDS011;2225;53.568;13.266;2022-10-17T14:06:36;10.37;;;3.90;;
4424;SDS011;2225;53.568;13.266;2022-10-17T14:12:00;10.43;;;3.77;;
4424;SDS011;2225;53.568;13.266;2022-10-17T14:14:38;8.10;;;3.87;;
4424;SDS011;2225;53.568;13.266;2022-10-17T14:17:27;5.37;;;2.53;;
4424;SDS011;2225;53.568;13.266;2022-10-17T14:19:58;8.90;;;2.87;;
4424;SDS011;2225;53.568;13.266;2022-10-17T14:22:50;10.13;;;3.40;;
4424;SDS011;2225;53.568;13.266;2022-10-17T14:25:38;9.60;;;3.00;;
4424;SDS011;2225;53.568;13.266;2022-10-17T14:30:35;6.67;;;3.87;;
4424;SDS011;2225;53.568;13.266;2022-10-17T14:33:23;7.57;;;3.47;;
4424;SDS011;2225;53.568;13.266;2022-10-17T14:35:57;6.50;;;3.57;;
4424;SDS011;2225;53.568;13.266;2022-10-17T14:38:27;10.10;;;3.63;;
4424;SDS011;2225;53.568;13.266;2022-10-17T14:40:59;9.20;;;3.80;;
4424;SDS011;2225;53.568;13.266;2022-10-17T14:44:01;8.10;;;3.77;;
4424;SDS011;2225;53.568;13.266;2022-10-17T14:46:32;9.70;;;3.20;;
4424;SDS011;2225;53.568;13.266;2022-10-17T14:49:03;8.23;;;4.00;;
4424;SDS011;2225;53.568;13.266;2022-10-17T14:54:50;6.80;;;3.40;;
4424;SDS011;2225;53.568;13.266;2022-10-17T14:57:18;8.03;;;3.10;;
4424;SDS011;2225;53.568;13.266;2022-10-17T14:59:49;6.47;;;3.50;;
4424;SDS011;2225;53.568;13.266;2022-10-17T15:02:24;10.90;;;3.43;;
4424;SDS011;2225;53.568;13.266;2022-10-17T15:04:54;7.23;;;3.60;;
4424;SDS011;2225;53.568;13.266;2022-10-17T15:07:21;7.10;;;3.83;;
4424;SDS011;2225;53.568;13.266;2022-10-17T15:09:49;8.70;;;3.23;;
4424;SDS011;2225;53.568;13.266;2022-10-17T15:12:19;8.37;;;3.60;;
4424;SDS011;2225;53.568;13.266;2022-10-17T15:14:50;9.73;;;3.60;;
4424;SDS011;2225;53.568;13.266;2022-10-17T15:17:23;7.60;;;3.60;;
4424;SDS011;2225;53.568;13.266;2022-10-17T15:19:52;7.70;;;3.53;;
4424;SDS011;2225;53.568;13.266;2022-10-17T15:22:19;6.97;;;3.60;;
4424;SDS011;2225;53.568;13.266;2022-10-17T15:24:47;7.57;;;3.23;;
4424;SDS011;2225;53.568;13.266;2022-10-17T15:27:15;15.53;;;3.93;;
4424;SDS011;2225;53.568;13.266;2022-10-17T15:29:44;12.23;;;3.60;;
4424;SDS011;2225;53.568;13.266;2022-10-17T15:32:11;8.70;;;3.10;;
4424;SDS011;2225;53.568;13.266;2022-10-17T15:34:39;11.20;;;4.00;;
4424;SDS011;2225;53.568;13.266;2022-10-17T15:37:09;13.73;;;6.10;;
4424;SDS011;2225;53.568;13.266;2022-10-17T15:39:52;11.33;;;6.27;;
4424;SDS011;2225;53.568;13.266;2022-10-17T15:42:27;8.40;;;5.27;;
4424;SDS011;2225;53.568;13.266;2022-10-17T15:44:55;8.87;;;4.00;;
4424;SDS011;2225;53.568;13.266;2022-10-17T15:47:24;17.37;;;8.50;;
4424;SDS011;2225;53.568;13.266;2022-10-17T15:49:56;7.77;;;4.80;;
4424;SDS011;2225;53.568;13.266;2022-10-17T15:52:24;11.30;;;6.77;;
4424;SDS011;2225;53.568;13.266;2022-10-17T15:54:51;8.97;;;5.40;;
4424;SDS011;2225;53.568;13.266;2022-10-17T15:57:23;11.57;;;6.17;;
4424;SDS011;2225;53.568;13.266;2022-10-17T15:59:54;17.20;;;10.70;;
4424;SDS011;2225;53.568;13.266;2022-10-17T16:02:24;10.30;;;5.50;;
4424;SDS011;2225;53.568;13.266;2022-10-17T16:04:51;9.03;;;4.07;;
4424;SDS011;2225;53.568;13.266;2022-10-17T16:07:19;9.60;;;4.47;;
4424;SDS011;2225;53.568;13.266;2022-10-17T16:09:46;9.47;;;4.00;;
4424;SDS011;2225;53.568;13.266;2022-10-17T16:12:14;12.60;;;4.20;;
4424;SDS011;2225;53.568;13.266;2022-10-17T16:14:53;7.53;;;4.10;;
4424;SDS011;2225;53.568;13.266;2022-10-17T16:17:20;7.20;;;4.10;;
4424;SDS011;2225;53.568;13.266;2022-10-17T16:19:47;7.63;;;3.70;;
4424;SDS011;2225;53.568;13.266;2022-10-17T16:22:31;8.07;;;3.97;;
4424;SDS011;2225;53.568;13.266;2022-10-17T16:25:02;9.30;;;3.80;;
4424;SDS011;2225;53.568;13.266;2022-10-17T16:27:36;9.43;;;4.60;;
4424;SDS011;2225;53.568;13.266;2022-10-17T16:30:04;12.33;;;4.20;;
4424;SDS011;2225;53.568;13.266;2022-10-17T16:32:33;10.07;;;4.50;;
4424;SDS011;2225;53.568;13.266;2022-10-17T16:35:00;12.10;;;4.43;;
4424;SDS011;2225;53.568;13.266;2022-10-17T16:37:27;15.67;;;4.40;;
4424;SDS011;2225;53.568;13.266;2022-10-17T16:39:54;10.83;;;4.20;;
4424;SDS011;2225;53.568;13.266;2022-10-17T16:42:20;14.73;;;4.63;;
4424;SDS011;2225;53.568;13.266;2022-10-17T16:44:48;10.93;;;4.83;;
4424;SDS011;2225;53.568;13.266;2022-10-17T16:47:16;6.80;;;4.17;;
4424;SDS011;2225;53.568;13.266;2022-10-17T16:49:44;21.03;;;5.27;;
4424;SDS011;2225;53.568;13.266;2022-10-17T16:52:11;16.13;;;4.30;;
4424;SDS011;2225;53.568;13.266;2022-10-17T16:54:38;9.33;;;4.00;;
4424;SDS011;2225;53.568;13.266;2022-10-17T16:57:05;9.70;;;4.57;;
4424;SDS011;2225;53.568;13.266;2022-10-17T16:59:32;8.20;;;4.23;;
4424;SDS011;2225;53.568;13.266;2022-10-17T17:01:59;9.73;;;3.57;;
4424;SDS011;2225;53.568;13.266;2022-10-17T17:04:26;10.27;;;3.87;;
4424;SDS011;2225;53.568;13.266;2022-10-17T17:06:52;12.30;;;4.30;;
4424;SDS011;2225;53.568;13.266;2022-10-17T17:09:19;10.17;;;4.23;;
4424;SDS011;2225;53.568;13.266;2022-10-17T17:11:46;13.33;;;5.10;;
4424;SDS011;2225;53.568;13.266;2022-10-17T17:14:13;14.43;;;4.17;;
4424;SDS011;2225;53.568;13.266;2022-10-17T17:16:40;10.80;;;4.93;;
4424;SDS011;2225;53.568;13.266;2022-10-17T17:19:12;9.17;;;4.00;;